createdAt,value
2023-01-03T00:06:40.798Z,0
2023-01-03T00:16:17.809Z,0
2023-01-03T00:25:55.347Z,0
2023-01-03T00:35:32.486Z,0
2023-01-03T00:45:10.644Z,0
2023-01-03T00:54:45.796Z,0
2023-01-03T01:04:22.917Z,0
2023-01-03T01:13:59.702Z,0
2023-01-03T01:23:36.772Z,0
2023-01-03T01:33:13.848Z,0
2023-01-03T01:42:50.632Z,0
2023-01-03T01:52:27.459Z,0
2023-01-03T02:02:04.964Z,0
2023-01-03T02:11:42.118Z,0
2023-01-03T02:21:20.278Z,0
2023-01-03T02:30:56.052Z,0.83
2023-01-03T02:40:32.711Z,0
2023-01-03T02:50:09.230Z,0
2023-01-03T02:59:46.906Z,0
2023-01-03T03:09:23.856Z,0
2023-01-03T03:19:00.878Z,0
2023-01-03T03:28:37.499Z,0
2023-01-03T03:38:14.438Z,0
2023-01-03T03:47:51.357Z,0
2023-01-03T03:57:27.592Z,0
2023-01-03T04:07:04.472Z,0
2023-01-03T04:16:41.391Z,0
2023-01-03T04:26:18.338Z,0
2023-01-03T04:35:55.252Z,0
2023-01-03T04:45:32.131Z,0
2023-01-03T04:55:09.169Z,0
2023-01-03T05:04:46.475Z,0
2023-01-03T05:14:23.948Z,0
2023-01-03T05:24:01.160Z,0
2023-01-03T05:33:38.472Z,0
2023-01-03T05:43:15.219Z,0
2023-01-03T05:52:52.124Z,0
2023-01-03T06:02:28.821Z,0
2023-01-03T06:12:05.346Z,0
2023-01-03T06:21:42.051Z,0
2023-01-03T06:31:18.661Z,0
2023-01-03T06:40:55.236Z,0
2023-01-03T06:50:32.000Z,1.67
2023-01-03T07:00:08.873Z,8.33
2023-01-03T07:09:45.169Z,25
2023-01-03T07:19:22.170Z,56.67
2023-01-03T07:28:58.665Z,105.83
2023-01-03T07:38:34.219Z,181.67
2023-01-03T07:48:10.847Z,273.33
2023-01-03T07:57:47.710Z,369.17
2023-01-03T08:07:24.503Z,418.33
2023-01-03T08:17:01.831Z,444.17
2023-01-03T08:26:39.222Z,515.83
2023-01-03T08:36:16.375Z,569.17
2023-01-03T08:45:53.427Z,610
2023-01-03T08:55:30.737Z,666.67
2023-01-03T09:05:08.087Z,696.67
2023-01-03T09:14:45.526Z,783.33
2023-01-03T09:24:22.773Z,852.5
2023-01-03T09:33:59.907Z,867.5
2023-01-03T09:43:37.240Z,908.33
2023-01-03T09:53:14.936Z,956.67
2023-01-03T10:02:53.112Z,1001.67
2023-01-03T10:12:31.070Z,1056.67
2023-01-03T10:22:09.008Z,1090.83
2023-01-03T10:31:46.824Z,1128.33
2023-01-03T10:41:24.745Z,1175.83
2023-01-03T10:51:02.026Z,1251.67
2023-01-03T11:00:39.785Z,1325.83
2023-01-03T11:10:17.725Z,1374.17
2023-01-03T11:19:55.384Z,1435.83
2023-01-03T11:29:32.922Z,1468.33
2023-01-03T11:38:42.366Z,1566.67
2023-01-03T11:48:20.098Z,1523.33
2023-01-03T11:57:57.613Z,1775
2023-01-03T12:07:47.349Z,2050.83
2023-01-03T12:17:12.133Z,1745.83
2023-01-03T12:26:49.815Z,1736.67
2023-01-03T12:36:27.037Z,1580.83
2023-01-03T12:46:10.395Z,1955
2023-01-03T12:55:41.832Z,1980
2023-01-03T13:05:20.448Z,3085.83
2023-01-03T13:15:38.099Z,51647.5
2023-01-03T13:25:21.268Z,45278.33
2023-01-03T13:34:54.078Z,19904.17
2023-01-03T13:44:24.467Z,22400.83
2023-01-03T13:53:56.742Z,24757.5
2023-01-03T14:03:48.003Z,25507.5
2023-01-03T14:13:09.529Z,1785.83
2023-01-03T14:22:48.895Z,8686.67
2023-01-03T14:32:19.693Z,1663.33
2023-01-03T14:41:53.315Z,950.83
2023-01-03T14:51:27.131Z,639.17
2023-01-03T15:01:01.594Z,459.17
2023-01-03T15:10:37.344Z,289.17
2023-01-03T15:20:13.175Z,158.33
2023-01-03T15:29:49.137Z,70
2023-01-03T15:39:25.681Z,23.33
2023-01-03T15:49:02.177Z,5
2023-01-03T15:58:38.279Z,0.83
2023-01-03T16:08:14.834Z,0
2023-01-03T16:17:51.507Z,0.83
2023-01-03T16:27:27.982Z,0.83
2023-01-03T16:37:04.590Z,0.83
2023-01-03T16:46:40.802Z,0.83
2023-01-03T16:56:16.449Z,0.83
2023-01-03T17:05:54.084Z,0.83
2023-01-03T17:15:31.250Z,0.83
2023-01-03T17:25:08.113Z,0.83
2023-01-03T17:34:45.133Z,0.83
2023-01-03T17:54:00.257Z,0.83
2023-01-03T18:03:37.948Z,0.83
2023-01-03T18:13:15.625Z,0.83
2023-01-03T18:22:53.046Z,0
2023-01-03T18:32:30.010Z,0.83
2023-01-03T18:42:06.571Z,0
2023-01-03T18:51:42.862Z,0
2023-01-03T19:01:19.481Z,0
2023-01-03T19:10:55.829Z,0
2023-01-03T19:20:32.530Z,0
2023-01-03T19:30:09.531Z,0
2023-01-03T19:39:46.217Z,0
2023-01-03T19:49:22.445Z,0
2023-01-03T19:59:03.019Z,0
2023-01-03T20:08:35.569Z,0
2023-01-03T20:18:12.542Z,0
2023-01-03T20:27:49.899Z,0
2023-01-03T20:37:26.010Z,0
2023-01-03T20:47:02.708Z,0
2023-01-03T20:56:39.445Z,0
2023-01-03T21:06:16.532Z,0
2023-01-03T21:15:53.737Z,0
2023-01-03T21:25:30.158Z,0
2023-01-03T21:35:07.055Z,0
2023-01-03T21:44:43.806Z,0
2023-01-03T21:54:20.039Z,0
2023-01-03T22:03:56.466Z,0
2023-01-03T22:13:33.069Z,0.83
2023-01-03T22:23:09.441Z,0
2023-01-03T22:32:45.823Z,0
2023-01-03T22:42:22.930Z,0
2023-01-03T22:52:00.013Z,0
2023-01-03T23:01:36.888Z,0
2023-01-03T23:11:13.241Z,0
2023-01-03T23:20:50.096Z,0
2023-01-03T23:30:26.170Z,0
2023-01-03T23:40:02.501Z,0
2023-01-03T23:49:39.341Z,0
2023-01-03T23:59:16.351Z,0
